Michel Dsr — FLTE — position and weather

sailwx.info

Track history (hours):
 
Tides and Currents Weather Stations Pressure Air Temp Water Temp Dewpoint Dewpoint Depression Visibility Wind Speed Wind Dir Waves Ship Positions

Michel Dsr

Last reported at 2015-Mar-31 01:27 UTC. Time now 2015-Apr-01 09:23 UTC.
Position N 47°18' W 002°07'.

Length 80 m; draft 6 m.

Type: Dredging. MMSI: 228344700.

Date/timePositionNaut miles runAvg speedWind from/ knotsBaromVisibWave heightAir tempDewpointWater temp
2015-Mar-31 01:27N 47°18' W 002°07'0 0.0
2015-Mar-31 00:19N 47°18' W 002°07'0 0.0
2015-Mar-30 23:26N 47°18' W 002°07'  
2015-Mar-24 16:13N 47°17' W 002°10'7 9.7
2015-Mar-24 15:29N 47°12' W 002°18'0 0.0
2015-Mar-24 14:31N 47°12' W 002°18'0 0.1
2015-Mar-24 13:33N 47°12' W 002°18'0 0.0
2015-Mar-24 12:33N 47°12' W 002°18'0 0.0
2015-Mar-24 11:31N 47°12' W 002°18'0 0.0
2015-Mar-24 10:19N 47°12' W 002°18'0 0.0
2015-Mar-24 09:20N 47°12' W 002°18'0 0.0
2015-Mar-24 08:33N 47°12' W 002°18'4 3.9
2015-Mar-24 07:33N 47°09' W 002°21'13 9.8
2015-Mar-24 06:14N 46°57' W 002°28'9 8.9
2015-Mar-24 05:14N 46°49' W 002°22'11 9.4
2015-Mar-24 04:05N 46°41' W 002°11'5 9.9
2015-Mar-24 03:33N 46°37' W 002°07'1010.0
2015-Mar-24 02:33N 46°29' W 001°58'1010.0
2015-Mar-24 01:33N 46°21' W 001°50'10 9.7
2015-Mar-24 00:33N 46°12' W 001°43'9 9.0
2015-Mar-23 23:33N 46°05' W 001°35'1 0.6
2015-Mar-23 22:33N 46°05' W 001°35'0 0.1
2015-Mar-23 21:33N 46°05' W 001°35'0 0.5
2015-Mar-23 20:31N 46°05' W 001°34'1010.6
2015-Mar-23 19:33N 46°06' W 001°20'5 5.3
2015-Mar-23 18:33N 46°09' W 001°13'0 0.0
2015-Mar-23 17:33N 46°09' W 001°13'0 0.0
2015-Mar-23 16:33N 46°09' W 001°13'0 0.0
2015-Mar-23 15:33N 46°09' W 001°13'4 4.4
2015-Mar-23 14:33N 46°05' W 001°15'0 0.0
2015-Mar-23 13:33N 46°05' W 001°15'0 0.1
2015-Mar-23 12:31N 46°05' W 001°15'1 0.7
2015-Mar-23 11:33N 46°05' W 001°16'10 9.6
2015-Mar-23 10:33N 46°05' W 001°30'3 2.7
2015-Mar-23 09:33N 46°05' W 001°34'0 0.2
2015-Mar-23 08:33N 46°05' W 001°34'0 0.2
2015-Mar-23 07:33N 46°05' W 001°35'2 1.6
2015-Mar-23 06:33N 46°06' W 001°37'1311.7
2015-Mar-23 05:26N 46°17' W 001°47'1011.5
2015-Mar-23 04:33N 46°25' W 001°55'1211.7
2015-Mar-23 03:33N 46°35' W 002°04'1111.5
2015-Mar-23 02:33N 46°44' W 002°14'1211.5
2015-Mar-23 01:31N 46°53' W 002°26'28 9.3
2015-Mar-22 22:33N 47°15' W 002°51'1110.7
2015-Mar-22 21:33N 47°21' W 003°03'1010.5
2015-Mar-22 20:33N 47°29' W 003°13'1111.3
2015-Mar-22 19:33N 47°38' W 003°22'7 6.8
2015-Mar-22 18:33N 47°45' W 003°19'0 0.0
2015-Mar-22 17:33N 47°45' W 003°19'0 0.0
2015-Mar-22 16:33N 47°45' W 003°19'3 3.2
2015-Mar-22 15:33N 47°42' W 003°22'10 9.7
2015-Mar-22 14:33N 47°33' W 003°17'1111.3
2015-Mar-22 13:33N 47°24' W 003°07'1212.0
2015-Mar-22 12:33N 47°15' W 002°56'1212.4
2015-Mar-22 11:33N 47°06' W 002°43'3712.0
2015-Mar-22 08:30N 46°39' W 002°07'1212.4
2015-Mar-22 07:33N 46°30' W 001°56'1111.1
2015-Mar-22 06:33N 46°22' W 001°44'0 0.3
2015-Mar-22 05:33N 46°22' W 001°45'0 0.1
2015-Mar-22 04:33N 46°22' W 001°45'10 9.5
2015-Mar-22 03:33N 46°29' W 001°55'1212.0
2015-Mar-22 02:33N 46°38' W 002°06'1212.0
2015-Mar-22 01:33N 46°47' W 002°18'3410.7
2015-Mar-21 22:24N 47°12' W 002°52'1011.4
2015-Mar-21 21:33N 47°19' W 003°01'1110.9
2015-Mar-21 20:33N 47°27' W 003°11'1111.3
2015-Mar-21 19:33N 47°37' W 003°21'8 8.4
2015-Mar-21 18:33N 47°45' W 003°19'0 0.0
2015-Mar-21 17:34N 47°45' W 003°19'0 0.0
2015-Mar-21 16:33N 47°45' W 003°19'1 1.0
2015-Mar-21 15:34N 47°44' W 003°20'5 4.7
2015-Mar-21 14:34N 47°40' W 003°24'0 0.0
2015-Mar-21 13:34N 47°40' W 003°24'0 0.0
2015-Mar-21 12:34N 47°40' W 003°24'0 0.0
2015-Mar-21 11:34N 47°40' W 003°24'0 0.0
2015-Mar-21 10:34N 47°40' W 003°24'0 0.0
2015-Mar-21 09:34N 47°40' W 003°24'0 0.0
2015-Mar-21 08:33N 47°40' W 003°24'0 0.0
2015-Mar-21 07:33N 47°40' W 003°24'0 0.0
2015-Mar-21 06:33N 47°40' W 003°24'0 0.1
2015-Mar-21 05:33N 47°40' W 003°24'0 0.0
2015-Mar-21 04:34N 47°40' W 003°24'0 0.0
2015-Mar-21 03:34N 47°40' W 003°24'0 0.1
2015-Mar-21 02:33N 47°40' W 003°24'0 0.0
2015-Mar-21 01:33N 47°40' W 003°24'  
Track history (hours):
 
Tides and Currents Weather Stations Pressure Air Temp Water Temp Dewpoint Dewpoint Depression Visibility Wind Speed Wind Dir Waves Ship Positions

Michel Dsr

Last reported at 2015-Mar-31 01:27 UTC. Time now 2015-Apr-01 09:23 UTC.
Position N 47°18' W 002°07'.

Length 80 m; draft 6 m.

Type: Dredging. MMSI: 228344700.

Date/timePositionNaut miles runAvg speedWind from/ knotsBaromVisibWave heightAir tempDewpointWater temp
2015-Mar-31 01:27N 47°18' W 002°07'0 0.0
2015-Mar-31 00:19N 47°18' W 002°07'0 0.0
2015-Mar-30 23:26N 47°18' W 002°07'  
2015-Mar-24 16:13N 47°17' W 002°10'7 9.7
2015-Mar-24 15:29N 47°12' W 002°18'0 0.0
2015-Mar-24 14:31N 47°12' W 002°18'0 0.1
2015-Mar-24 13:33N 47°12' W 002°18'0 0.0
2015-Mar-24 12:33N 47°12' W 002°18'0 0.0
2015-Mar-24 11:31N 47°12' W 002°18'0 0.0
2015-Mar-24 10:19N 47°12' W 002°18'0 0.0
2015-Mar-24 09:20N 47°12' W 002°18'0 0.0
2015-Mar-24 08:33N 47°12' W 002°18'4 3.9
2015-Mar-24 07:33N 47°09' W 002°21'13 9.8
2015-Mar-24 06:14N 46°57' W 002°28'9 8.9
2015-Mar-24 05:14N 46°49' W 002°22'11 9.4
2015-Mar-24 04:05N 46°41' W 002°11'5 9.9
2015-Mar-24 03:33N 46°37' W 002°07'1010.0
2015-Mar-24 02:33N 46°29' W 001°58'1010.0
2015-Mar-24 01:33N 46°21' W 001°50'10 9.7
2015-Mar-24 00:33N 46°12' W 001°43'9 9.0
2015-Mar-23 23:33N 46°05' W 001°35'1 0.6
2015-Mar-23 22:33N 46°05' W 001°35'0 0.1
2015-Mar-23 21:33N 46°05' W 001°35'0 0.5
2015-Mar-23 20:31N 46°05' W 001°34'1010.6
2015-Mar-23 19:33N 46°06' W 001°20'5 5.3
2015-Mar-23 18:33N 46°09' W 001°13'0 0.0
2015-Mar-23 17:33N 46°09' W 001°13'0 0.0
2015-Mar-23 16:33N 46°09' W 001°13'0 0.0
2015-Mar-23 15:33N 46°09' W 001°13'4 4.4
2015-Mar-23 14:33N 46°05' W 001°15'0 0.0
2015-Mar-23 13:33N 46°05' W 001°15'0 0.1
2015-Mar-23 12:31N 46°05' W 001°15'1 0.7
2015-Mar-23 11:33N 46°05' W 001°16'10 9.6
2015-Mar-23 10:33N 46°05' W 001°30'3 2.7
2015-Mar-23 09:33N 46°05' W 001°34'0 0.2
2015-Mar-23 08:33N 46°05' W 001°34'0 0.2
2015-Mar-23 07:33N 46°05' W 001°35'2 1.6
2015-Mar-23 06:33N 46°06' W 001°37'1311.7
2015-Mar-23 05:26N 46°17' W 001°47'1011.5
2015-Mar-23 04:33N 46°25' W 001°55'1211.7
2015-Mar-23 03:33N 46°35' W 002°04'1111.5
2015-Mar-23 02:33N 46°44' W 002°14'1211.5
2015-Mar-23 01:31N 46°53' W 002°26'28 9.3
2015-Mar-22 22:33N 47°15' W 002°51'1110.7
2015-Mar-22 21:33N 47°21' W 003°03'1010.5
2015-Mar-22 20:33N 47°29' W 003°13'1111.3
2015-Mar-22 19:33N 47°38' W 003°22'7 6.8
2015-Mar-22 18:33N 47°45' W 003°19'0 0.0
2015-Mar-22 17:33N 47°45' W 003°19'0 0.0
2015-Mar-22 16:33N 47°45' W 003°19'3 3.2
2015-Mar-22 15:33N 47°42' W 003°22'10 9.7
2015-Mar-22 14:33N 47°33' W 003°17'1111.3
2015-Mar-22 13:33N 47°24' W 003°07'1212.0
2015-Mar-22 12:33N 47°15' W 002°56'1212.4
2015-Mar-22 11:33N 47°06' W 002°43'3712.0
2015-Mar-22 08:30N 46°39' W 002°07'1212.4
2015-Mar-22 07:33N 46°30' W 001°56'1111.1
2015-Mar-22 06:33N 46°22' W 001°44'0 0.3
2015-Mar-22 05:33N 46°22' W 001°45'0 0.1
2015-Mar-22 04:33N 46°22' W 001°45'10 9.5
2015-Mar-22 03:33N 46°29' W 001°55'1212.0
2015-Mar-22 02:33N 46°38' W 002°06'1212.0
2015-Mar-22 01:33N 46°47' W 002°18'3410.7
2015-Mar-21 22:24N 47°12' W 002°52'1011.4
2015-Mar-21 21:33N 47°19' W 003°01'1110.9
2015-Mar-21 20:33N 47°27' W 003°11'1111.3
2015-Mar-21 19:33N 47°37' W 003°21'8 8.4
2015-Mar-21 18:33N 47°45' W 003°19'0 0.0
2015-Mar-21 17:34N 47°45' W 003°19'0 0.0
2015-Mar-21 16:33N 47°45' W 003°19'1 1.0
2015-Mar-21 15:34N 47°44' W 003°20'5 4.7
2015-Mar-21 14:34N 47°40' W 003°24'0 0.0
2015-Mar-21 13:34N 47°40' W 003°24'0 0.0
2015-Mar-21 12:34N 47°40' W 003°24'0 0.0
2015-Mar-21 11:34N 47°40' W 003°24'0 0.0
2015-Mar-21 10:34N 47°40' W 003°24'0 0.0
2015-Mar-21 09:34N 47°40' W 003°24'0 0.0
2015-Mar-21 08:33N 47°40' W 003°24'0 0.0
2015-Mar-21 07:33N 47°40' W 003°24'0 0.0
2015-Mar-21 06:33N 47°40' W 003°24'0 0.1
2015-Mar-21 05:33N 47°40' W 003°24'0 0.0
2015-Mar-21 04:34N 47°40' W 003°24'0 0.0
2015-Mar-21 03:34N 47°40' W 003°24'0 0.1
2015-Mar-21 02:33N 47°40' W 003°24'0 0.0
2015-Mar-21 01:33N 47°40' W 003°24'  

Dump ship's entire track history